Capitol Logistics 7315

Operating for MZN



KABE
Lehigh Valley International Airport
Allentown, Pennsylvania
KRFD
Chicago/Rockford International Airport
Rockford, Illinois

Activity Log

Date Flight Route Aircraft Duration
04/03/2020 CPX322 PSB J60 JOT V171 RFD B763 1h 55m
02/25/2020 CPX322 PSB J60 JOT V171 RFD B763 2h 00m
01/16/2019 CPX410 ETX V30 PSB J60 JOT QUOTE RFD B752 2h 00m

Route Details

Aircraft Information
Primary: Boeing 767-300BDSF
Backup: Boeing 757-200SF
Route Data
Distance: 622nm
Duration: 1h 55m
Recm'd Route: ETX V30 PSB J60 MIDST J60 JOT QUOTE RFD
Origin Wx: KABE 141851Z 24010KT 10SM -RA FEW050 BKN065 OVC080 17/11 A2997 RMK AO2 RAB1756 SLP150 P0000 T01670111 $
Dest. Wx: KRFD 141854Z 29011G19KT 10SM BKN038 09/M02 A3010 RMK AO2 SLP199 T00891022
Notes: